Time;durP1;ratioP1;P1;durP2;ratioP2;P2;SDS_P1;SDS_P2;PMS_P1;PMS_P2;Temp;Humidity;BMP_temperature;BMP_pressure;BME280_temperature;BME280_humidity;BME280_pressure;Samples;Min_cycle;Max_cycle;Signal;HPM_P1;HPM_P2
2023/12/11 00:01:57;;;;;;;50.65;7.57;;;9.40;91.80;;;;;;5114941;28;20023;-80
2023/12/11 00:04:23;;;;;;;41.85;6.63;;;9.40;91.80;;;;;;5111885;28;20024;-81
2023/12/11 00:06:48;;;;;;;32.33;6.13;;;9.40;91.80;;;;;;5112126;28;20041;-81
2023/12/11 00:09:14;;;;;;;32.38;6.05;;;9.30;91.80;;;;;;5114467;28;20035;-81
2023/12/11 00:11:40;;;;;;;35.35;6.40;;;9.30;91.80;;;;;;5116066;28;20046;-81
2023/12/11 00:14:06;;;;;;;42.80;7.25;;;9.30;91.80;;;;;;5139206;28;20043;-81
2023/12/11 00:16:32;;;;;;;30.77;6.47;;;9.30;91.80;;;;;;5112348;28;20122;-81
2023/12/11 00:18:58;;;;;;;29.55;6.20;;;9.30;91.80;;;;;;5108947;28;20090;-82
2023/12/11 00:21:23;;;;;;;31.48;6.03;;;9.30;91.80;;;;;;5137884;28;20390;-81
2023/12/11 00:23:49;;;;;;;36.60;6.90;;;9.30;91.70;;;;;;5131138;28;20046;-81
2023/12/11 00:26:15;;;;;;;35.63;6.32;;;9.30;91.80;;;;;;5117580;28;20093;-81
2023/12/11 00:28:41;;;;;;;29.00;6.30;;;9.30;91.80;;;;;;5134600;28;20039;-81
2023/12/11 00:31:07;;;;;;;33.83;6.25;;;9.20;91.80;;;;;;5138858;28;20042;-82
2023/12/11 00:33:35;;;;;;;35.03;7.35;;;9.30;91.80;;;;;;5133735;27;20110;-82
2023/12/11 00:36:01;;;;;;;34.28;6.82;;;9.20;91.80;;;;;;5110959;27;20088;-81
2023/12/11 00:38:26;;;;;;;34.42;7.68;;;9.20;91.80;;;;;;5139229;27;20035;-80
2023/12/11 00:40:53;;;;;;;28.92;6.32;;;9.30;91.90;;;;;;5116324;27;20038;-81
2023/12/11 00:43:19;;;;;;;37.25;7.15;;;9.30;91.90;;;;;;5137110;27;20030;-81
2023/12/11 00:45:44;;;;;;;30.98;6.72;;;9.20;91.90;;;;;;5141265;27;20451;-81
2023/12/11 00:48:10;;;;;;;27.45;6.00;;;9.30;91.90;;;;;;5114442;28;20042;-81
2023/12/11 00:50:36;;;;;;;32.92;6.05;;;9.30;91.90;;;;;;5137129;27;20421;-81
2023/12/11 00:53:02;;;;;;;28.88;5.40;;;9.30;92.00;;;;;;5114032;27;20046;-81
2023/12/11 00:55:27;;;;;;;30.15;5.43;;;9.30;92.00;;;;;;5114679;27;20039;-81
2023/12/11 00:57:53;;;;;;;25.02;5.90;;;9.30;92.00;;;;;;5116073;27;20038;-81
2023/12/11 01:00:19;;;;;;;37.45;5.68;;;9.30;92.00;;;;;;5129943;27;20028;-81
2023/12/11 01:02:45;;;;;;;28.35;5.65;;;9.40;92.00;;;;;;5117349;27;20509;-81
2023/12/11 01:05:11;;;;;;;29.83;6.30;;;9.30;92.00;;;;;;5116873;27;20028;-81
2023/12/11 01:07:37;;;;;;;25.02;5.15;;;9.40;92.00;;;;;;5100936;27;20051;-81
2023/12/11 01:10:03;;;;;;;27.30;5.25;;;9.40;92.00;;;;;;5134129;27;20050;-81
2023/12/11 01:12:29;;;;;;;32.03;5.47;;;9.40;92.00;;;;;;5119396;27;20027;-81
2023/12/11 01:14:54;;;;;;;24.92;5.07;;;9.40;92.00;;;;;;5120568;27;20050;-81
2023/12/11 01:17:20;;;;;;;23.13;4.63;;;9.40;92.10;;;;;;5132484;27;20027;-81
2023/12/11 01:19:46;;;;;;;27.67;5.28;;;9.40;92.10;;;;;;5118816;27;20039;-81
2023/12/11 01:22:11;;;;;;;26.50;5.53;;;9.40;92.10;;;;;;5125764;27;20103;-81
2023/12/11 01:24:37;;;;;;;27.92;6.00;;;9.40;92.10;;;;;;5133338;27;20042;-81
2023/12/11 01:27:03;;;;;;;32.70;6.20;;;9.50;92.30;;;;;;5102231;27;20043;-81
2023/12/11 01:29:28;;;;;;;37.53;6.03;;;9.50;92.10;;;;;;5114553;27;20122;-81
2023/12/11 01:31:55;;;;;;;36.05;6.35;;;9.40;92.10;;;;;;5112250;27;20458;-81
2023/12/11 01:34:20;;;;;;;31.92;6.53;;;9.50;92.20;;;;;;5138331;27;20067;-81
2023/12/11 01:36:46;;;;;;;33.58;5.72;;;9.50;92.20;;;;;;5119634;27;20090;-81
2023/12/11 01:39:12;;;;;;;23.88;5.53;;;9.50;92.20;;;;;;5135795;27;20069;-81
2023/12/11 01:41:37;;;;;;;34.38;6.32;;;9.50;92.20;;;;;;5118697;27;20031;-81
2023/12/11 01:44:03;;;;;;;36.95;6.35;;;9.50;92.20;;;;;;5136743;27;20397;-81
2023/12/11 01:46:31;;;;;;;38.53;6.20;;;9.50;92.20;;;;;;5116870;27;20031;-81
2023/12/11 01:48:56;;;;;;;29.23;6.10;;;9.60;92.20;;;;;;5115207;28;20054;-81
2023/12/11 01:51:23;;;;;;;32.60;6.93;;;9.60;92.20;;;;;;5116362;28;20478;-81
2023/12/11 01:53:50;;;;;;;26.02;6.40;;;9.50;92.20;;;;;;5099286;27;20055;-81
2023/12/11 01:56:21;;;;;;;33.85;6.88;;;9.60;92.20;;;;;;5120158;27;20047;-81
2023/12/11 01:58:47;;;;;;;32.75;7.00;;;9.60;92.20;;;;;;5116660;27;20096;-81
2023/12/11 02:01:14;;;;;;;36.05;6.88;;;9.60;92.10;;;;;;5117167;27;20053;-81
2023/12/11 02:03:40;;;;;;;38.85;7.18;;;9.50;92.10;;;;;;5119113;27;20040;-81
2023/12/11 02:06:06;;;;;;;30.88;5.72;;;9.60;92.10;;;;;;5123089;27;20031;-80
2023/12/11 02:08:32;;;;;;;38.17;7.25;;;9.60;92.10;;;;;;5132088;27;20042;-80
2023/12/11 02:10:58;;;;;;;36.55;7.38;;;9.60;92.10;;;;;;5111606;27;20031;-81
2023/12/11 02:13:24;;;;;;;38.25;7.13;;;9.50;92.10;;;;;;5111246;28;20032;-81
2023/12/11 02:15:50;;;;;;;33.35;6.65;;;9.50;92.10;;;;;;5100615;27;20517;-81
2023/12/11 02:18:17;;;;;;;34.13;7.00;;;9.60;92.10;;;;;;5113766;27;20541;-81
2023/12/11 02:20:44;;;;;;;38.85;7.05;;;9.50;92.10;;;;;;5114592;27;20041;-80
2023/12/11 02:23:31;;;;;;;38.03;7.10;;;9.60;92.10;;;;;;5120294;27;20027;-80
2023/12/11 02:26:11;;;;;;;35.30;8.02;;;9.60;92.10;;;;;;5129960;27;20027;-80
2023/12/11 02:28:37;;;;;;;34.75;7.38;;;9.60;92.10;;;;;;5112917;27;20027;-80
2023/12/11 02:31:03;;;;;;;38.90;7.93;;;9.50;92.00;;;;;;5114034;28;20068;-80
2023/12/11 02:33:28;;;;;;;36.80;7.45;;;9.50;92.00;;;;;;5134581;27;20031;-80
2023/12/11 02:35:54;;;;;;;40.20;7.93;;;9.60;92.00;;;;;;5137185;27;20086;-80
2023/12/11 02:38:20;;;;;;;33.95;6.55;;;9.50;92.00;;;;;;5136190;27;20039;-80
2023/12/11 02:40:45;;;;;;;38.80;8.57;;;9.50;92.00;;;;;;5113685;27;20438;-80
2023/12/11 02:43:11;;;;;;;43.83;7.93;;;9.50;92.00;;;;;;5128778;27;20039;-81
2023/12/11 02:45:37;;;;;;;42.90;6.57;;;9.50;92.10;;;;;;5132769;27;20042;-79
2023/12/11 02:48:03;;;;;;;42.88;7.05;;;9.50;92.10;;;;;;5129431;27;20043;-80
2023/12/11 02:50:29;;;;;;;38.35;6.82;;;9.50;92.10;;;;;;5111840;27;20032;-80
2023/12/11 02:52:57;;;;;;;39.00;6.95;;;9.50;92.10;;;;;;5115936;27;20043;-80
2023/12/11 02:55:23;;;;;;;30.27;6.07;;;9.50;92.10;;;;;;5131657;27;20031;-80
2023/12/11 02:57:48;;;;;;;51.17;7.28;;;9.50;92.20;;;;;;5134195;27;20168;-80
2023/12/11 03:00:15;;;;;;;35.75;7.53;;;9.50;92.20;;;;;;5117792;27;20042;-80
2023/12/11 03:02:40;;;;;;;34.42;7.35;;;9.60;92.20;;;;;;5097509;27;20027;-80
2023/12/11 03:05:06;;;;;;;48.10;7.90;;;9.50;92.20;;;;;;5114720;27;20126;-80
2023/12/11 03:07:32;;;;;;;39.13;6.95;;;9.60;92.30;;;;;;5136362;27;20043;-80
2023/12/11 03:09:58;;;;;;;37.03;7.25;;;9.50;92.20;;;;;;5128064;27;20454;-80
2023/12/11 03:12:23;;;;;;;38.35;8.13;;;9.60;92.30;;;;;;5099833;27;20031;-80
2023/12/11 03:14:49;;;;;;;38.67;8.18;;;9.60;92.30;;;;;;5108183;27;20039;-80
2023/12/11 03:17:15;;;;;;;32.08;7.05;;;9.60;92.30;;;;;;5113946;27;20455;-80
2023/12/11 03:19:40;;;;;;;38.03;6.30;;;9.60;92.40;;;;;;5113895;27;20114;-80
2023/12/11 03:22:06;;;;;;;32.17;6.65;;;9.60;92.40;;;;;;5112378;27;20035;-80
2023/12/11 03:24:31;;;;;;;40.30;7.97;;;9.60;92.40;;;;;;5111111;27;20035;-80
2023/12/11 03:26:57;;;;;;;43.40;8.65;;;9.60;92.40;;;;;;5110414;27;20039;-80
2023/12/11 03:29:23;;;;;;;35.38;6.85;;;9.60;92.40;;;;;;5110692;27;20627;-80
2023/12/11 03:31:48;;;;;;;36.65;8.10;;;9.60;92.50;;;;;;5113266;27;20043;-79
2023/12/11 03:34:14;;;;;;;34.05;7.32;;;9.60;92.50;;;;;;5111666;27;20053;-80
2023/12/11 03:36:40;;;;;;;38.55;8.07;;;9.60;92.50;;;;;;5135184;27;20071;-79
2023/12/11 03:39:07;;;;;;;35.70;7.10;;;9.60;92.50;;;;;;5115010;27;20042;-79
2023/12/11 03:41:33;;;;;;;34.50;7.15;;;9.60;92.50;;;;;;5125386;27;20039;-79
2023/12/11 03:43:59;;;;;;;33.10;6.20;;;9.60;92.50;;;;;;5129792;27;20383;-79
2023/12/11 03:46:24;;;;;;;34.38;7.45;;;9.60;92.60;;;;;;5107305;28;20122;-80
2023/12/11 03:48:50;;;;;;;42.00;8.18;;;9.70;92.60;;;;;;5129399;28;20040;-80
2023/12/11 03:51:15;;;;;;;37.83;7.32;;;10.30;92.80;;;;;;5110480;28;20073;-79
2023/12/11 03:53:41;;;;;;;38.67;7.60;;;9.60;92.60;;;;;;5110109;28;20044;-79
2023/12/11 03:56:08;;;;;;;44.72;7.82;;;9.70;92.70;;;;;;5127716;28;20165;-79
2023/12/11 03:58:33;;;;;;;36.83;6.68;;;9.70;92.70;;;;;;5130803;28;20031;-79
2023/12/11 04:00:59;;;;;;;44.47;7.18;;;9.70;92.70;;;;;;5126067;28;20038;-79
2023/12/11 04:03:24;;;;;;;31.42;6.20;;;9.70;92.70;;;;;;5128117;28;20092;-79
2023/12/11 04:05:50;;;;;;;37.88;7.10;;;9.70;92.70;;;;;;5093240;28;20081;-79
2023/12/11 04:08:16;;;;;;;41.85;6.78;;;9.70;92.70;;;;;;5099885;28;20031;-79
2023/12/11 04:10:42;;;;;;;41.22;6.53;;;9.70;92.70;;;;;;5126938;27;20046;-79
2023/12/11 04:13:07;;;;;;;30.40;5.22;;;9.70;92.70;;;;;;5131031;27;20038;-80
2023/12/11 04:15:33;;;;;;;39.72;7.15;;;9.70;92.60;;;;;;5121891;27;20073;-80
2023/12/11 04:17:59;;;;;;;31.67;5.55;;;9.70;92.60;;;;;;5117774;27;20031;-80
2023/12/11 04:20:24;;;;;;;40.88;7.07;;;9.70;92.60;;;;;;5133867;27;20087;-80
2023/12/11 04:22:50;;;;;;;36.22;7.22;;;9.70;92.60;;;;;;5138348;27;20055;-80
2023/12/11 04:25:16;;;;;;;39.70;6.97;;;9.70;92.60;;;;;;5136066;27;20117;-80
2023/12/11 04:27:41;;;;;;;33.97;6.30;;;9.70;92.60;;;;;;5133609;27;20031;-80
2023/12/11 04:30:07;;;;;;;35.20;8.40;;;9.70;92.60;;;;;;5114554;27;20451;-80
2023/12/11 04:32:33;;;;;;;38.70;7.85;;;9.80;92.60;;;;;;5134750;27;20058;-80
2023/12/11 04:34:59;;;;;;;41.92;7.13;;;9.70;92.60;;;;;;5116405;27;20039;-80
2023/12/11 04:37:25;;;;;;;46.03;9.18;;;9.70;92.60;;;;;;5133132;27;20051;-80
2023/12/11 04:39:50;;;;;;;30.20;6.57;;;9.80;92.60;;;;;;5135465;27;20047;-80
2023/12/11 04:42:16;;;;;;;38.58;7.97;;;9.70;92.60;;;;;;5135332;27;20031;-80
2023/12/11 04:44:42;;;;;;;36.40;8.27;;;9.70;92.60;;;;;;5112011;27;20043;-80
2023/12/11 04:47:07;;;;;;;31.02;6.63;;;9.80;92.60;;;;;;5120810;27;20034;-80
2023/12/11 04:49:33;;;;;;;41.75;7.10;;;9.70;92.60;;;;;;5113024;27;20057;-80
2023/12/11 04:51:59;;;;;;;28.92;6.13;;;9.80;92.60;;;;;;5102412;27;20043;-80
2023/12/11 04:54:25;;;;;;;30.73;6.63;;;9.80;92.60;;;;;;5114119;27;20533;-80
2023/12/11 04:56:51;;;;;;;43.33;7.18;;;9.70;92.60;;;;;;5117348;27;20039;-80
2023/12/11 04:59:16;;;;;;;33.90;6.05;;;9.80;92.60;;;;;;5111694;27;20164;-80
2023/12/11 05:01:42;;;;;;;32.72;5.97;;;9.70;92.60;;;;;;5095365;27;20070;-80
2023/12/11 05:04:08;;;;;;;32.58;5.35;;;9.70;92.70;;;;;;5113446;27;20036;-79
2023/12/11 05:06:34;;;;;;;40.35;7.20;;;9.70;92.50;;;;;;5116470;27;20066;-80
2023/12/11 05:08:59;;;;;;;32.53;5.25;;;9.70;92.50;;;;;;5133770;27;20136;-80
2023/12/11 05:11:25;;;;;;;37.05;7.00;;;9.70;92.50;;;;;;5113233;27;20046;-80
2023/12/11 05:13:51;;;;;;;28.35;6.07;;;9.70;92.50;;;;;;5095897;27;20051;-80
2023/12/11 05:16:16;;;;;;;27.10;5.07;;;9.70;92.50;;;;;;5118148;27;20035;-80
2023/12/11 05:18:42;;;;;;;29.40;6.18;;;9.70;92.50;;;;;;5134516;27;20397;-80
2023/12/11 05:21:09;;;;;;;23.80;5.05;;;9.70;92.40;;;;;;5129118;27;20039;-80
2023/12/11 05:23:35;;;;;;;26.58;5.78;;;9.70;92.40;;;;;;5120052;27;20402;-80
2023/12/11 05:26:01;;;;;;;28.60;5.20;;;9.70;92.40;;;;;;5118657;27;20451;-80
2023/12/11 05:28:27;;;;;;;38.67;6.38;;;9.70;92.40;;;;;;5112337;27;20091;-80
2023/12/11 05:30:52;;;;;;;33.60;6.25;;;9.70;92.40;;;;;;5112490;27;20382;-80
2023/12/11 05:33:18;;;;;;;27.20;4.80;;;9.70;92.30;;;;;;5111436;27;20043;-80
2023/12/11 05:35:44;;;;;;;26.33;5.15;;;9.70;92.30;;;;;;5115713;27;20401;-80
2023/12/11 05:38:09;;;;;;;24.33;5.13;;;9.70;92.30;;;;;;5098948;27;20430;-80
2023/12/11 05:40:35;;;;;;;19.58;5.03;;;9.70;92.30;;;;;;5102967;27;20494;-81
2023/12/11 05:43:01;;;;;;;23.38;6.25;;;9.70;92.30;;;;;;5120516;27;20035;-80
2023/12/11 05:45:26;;;;;;;29.50;5.88;;;9.60;92.20;;;;;;5116881;27;20118;-80
2023/12/11 05:47:52;;;;;;;26.55;4.95;;;9.70;92.30;;;;;;5114176;27;20092;-80
2023/12/11 05:50:18;;;;;;;23.88;5.00;;;9.60;92.20;;;;;;5111246;27;20079;-82
2023/12/11 05:52:44;;;;;;;37.72;6.85;;;9.70;92.20;;;;;;5112350;28;20039;-82
2023/12/11 05:55:10;;;;;;;28.80;5.57;;;9.60;92.20;;;;;;5137157;27;20055;-81
2023/12/11 05:57:35;;;;;;;27.63;5.38;;;9.60;92.20;;;;;;5113857;27;20420;-81
2023/12/11 06:00:02;;;;;;;28.65;6.70;;;9.70;92.30;;;;;;5111695;27;20456;-81
2023/12/11 06:02:28;;;;;;;38.22;6.93;;;9.70;92.30;;;;;;5131184;27;20031;-81
2023/12/11 06:04:53;;;;;;;31.27;5.70;;;9.70;92.30;;;;;;5108406;27;20439;-81
2023/12/11 06:07:19;;;;;;;28.27;6.18;;;9.60;92.30;;;;;;5135021;27;20062;-81
2023/12/11 06:09:45;;;;;;;29.17;6.30;;;9.70;92.30;;;;;;5130817;27;20070;-81
2023/12/11 06:12:11;;;;;;;26.92;6.32;;;9.70;92.30;;;;;;5114322;27;20092;-81
2023/12/11 06:14:40;;;;;;;26.95;5.57;;;9.70;92.30;;;;;;5109091;27;20080;-81
2023/12/11 06:17:06;;;;;;;27.00;5.18;;;9.60;92.30;;;;;;5113600;27;20420;-81
2023/12/11 06:19:31;;;;;;;24.88;5.72;;;9.70;92.30;;;;;;5134510;27;20043;-81
2023/12/11 06:21:57;;;;;;;27.48;4.93;;;9.70;92.20;;;;;;5115746;27;20118;-81
2023/12/11 06:24:23;;;;;;;28.40;5.25;;;9.70;92.20;;;;;;5112677;27;20039;-81
2023/12/11 06:26:49;;;;;;;34.25;5.80;;;9.70;92.20;;;;;;5121187;27;20101;-81
2023/12/11 06:29:14;;;;;;;27.40;5.13;;;9.60;92.20;;;;;;5140995;27;20027;-83
2023/12/11 06:31:40;;;;;;;30.48;5.68;;;9.70;92.20;;;;;;5123024;28;20031;-81
2023/12/11 06:34:06;;;;;;;23.63;4.35;;;9.70;92.20;;;;;;5118562;28;20565;-81
2023/12/11 06:36:32;;;;;;;28.15;6.38;;;9.70;92.20;;;;;;5110230;27;20092;-81
2023/12/11 06:38:57;;;;;;;27.30;5.47;;;9.70;92.20;;;;;;5131403;27;20031;-81
2023/12/11 06:41:23;;;;;;;21.38;4.90;;;9.70;92.20;;;;;;5112923;27;20533;-81
2023/12/11 06:43:54;;;;;;;18.83;4.40;;;9.70;92.20;;;;;;5109361;27;20043;-81
2023/12/11 06:46:19;;;;;;;19.33;4.13;;;9.70;92.20;;;;;;5113855;27;20035;-81
2023/12/11 06:48:45;;;;;;;24.10;4.40;;;9.70;92.10;;;;;;5109736;27;20066;-81
2023/12/11 06:51:13;;;;;;;27.35;4.82;;;9.70;92.10;;;;;;5109582;27;20096;-80
2023/12/11 06:53:39;;;;;;;26.80;5.82;;;9.70;92.10;;;;;;5128159;27;20401;-80
2023/12/11 06:56:05;;;;;;;26.58;5.10;;;9.70;92.20;;;;;;5131896;27;20088;-82
2023/12/11 06:58:31;;;;;;;28.00;4.75;;;9.70;92.20;;;;;;5111539;27;20046;-80
2023/12/11 07:00:58;;;;;;;21.13;4.55;;;9.70;92.20;;;;;;5117170;27;20035;-80
2023/12/11 07:03:24;;;;;;;23.58;4.38;;;9.70;92.20;;;;;;5134225;27;20035;-80
2023/12/11 07:05:50;;;;;;;24.38;4.55;;;9.70;92.20;;;;;;5115115;27;20035;-80
2023/12/11 07:08:15;;;;;;;22.85;4.75;;;9.70;92.20;;;;;;5115169;27;20050;-80
2023/12/11 07:10:41;;;;;;;24.98;5.15;;;9.70;92.20;;;;;;5133163;27;20040;-80
2023/12/11 07:13:07;;;;;;;22.10;5.03;;;9.70;92.30;;;;;;5094194;28;20040;-80
2023/12/11 07:15:33;;;;;;;21.98;3.97;;;9.70;92.30;;;;;;5113557;27;20035;-80
2023/12/11 07:17:58;;;;;;;24.98;5.05;;;9.70;92.30;;;;;;5091423;27;20043;-80
2023/12/11 07:20:24;;;;;;;27.73;5.00;;;9.70;92.30;;;;;;5128595;27;20035;-80
2023/12/11 07:22:50;;;;;;;21.98;4.43;;;9.70;92.30;;;;;;5128133;27;20078;-79
2023/12/11 07:25:16;;;;;;;21.17;4.32;;;9.70;92.40;;;;;;5092114;27;20549;-80
2023/12/11 07:27:43;;;;;;;21.33;5.10;;;9.70;92.40;;;;;;5112613;27;20481;-80
2023/12/11 07:30:09;;;;;;;24.17;3.85;;;9.70;92.40;;;;;;5111390;27;20060;-80
2023/12/11 07:32:35;;;;;;;21.02;4.55;;;9.70;92.40;;;;;;5108258;28;20467;-81
2023/12/11 07:35:02;;;;;;;20.38;4.00;;;9.70;92.40;;;;;;5093688;27;20111;-81
2023/12/11 07:37:27;;;;;;;20.17;3.97;;;9.70;92.50;;;;;;5092152;27;20043;-80
2023/12/11 07:39:53;;;;;;;20.20;4.28;;;9.70;92.50;;;;;;5113479;27;20131;-81
2023/12/11 07:42:19;;;;;;;21.02;3.35;;;9.70;92.50;;;;;;5117981;28;20432;-81
2023/12/11 07:44:45;;;;;;;15.63;3.83;;;9.70;92.50;;;;;;5105992;27;20039;-81
2023/12/11 07:47:10;;;;;;;14.80;2.97;;;9.70;92.50;;;;;;5112400;27;20046;-81
2023/12/11 07:49:36;;;;;;;17.42;3.75;;;9.70;92.50;;;;;;5132174;27;20410;-81
2023/12/11 07:52:03;;;;;;;11.80;2.47;;;9.70;92.60;;;;;;5127339;28;20047;-81
2023/12/11 07:54:28;;;;;;;13.60;2.95;;;9.70;92.60;;;;;;5133789;28;20110;-81
2023/12/11 07:56:54;;;;;;;14.35;3.53;;;9.70;92.60;;;;;;5112862;28;20066;-81
2023/12/11 07:59:20;;;;;;;17.17;3.75;;;9.70;92.60;;;;;;5113184;28;20050;-81
2023/12/11 08:01:45;;;;;;;13.48;2.65;;;9.70;92.60;;;;;;5114588;28;20071;-81
2023/12/11 08:04:12;;;;;;;12.30;2.85;;;9.70;92.70;;;;;;5109576;28;20520;-82
2023/12/11 08:06:42;;;;;;;9.98;2.08;;;9.70;92.70;;;;;;5109971;28;20043;-83
2023/12/11 08:09:08;;;;;;;17.13;3.20;;;9.70;92.70;;;;;;5127847;28;20031;-82
2023/12/11 08:11:34;;;;;;;13.38;2.25;;;9.70;92.70;;;;;;5110842;28;20027;-82
2023/12/11 08:14:00;;;;;;;13.70;2.58;;;9.70;92.80;;;;;;5106960;28;20096;-81
2023/12/11 08:16:26;;;;;;;10.75;2.70;;;9.70;92.70;;;;;;5113036;28;20027;-81
2023/12/11 08:18:52;;;;;;;14.20;2.78;;;9.70;92.80;;;;;;5111969;28;20034;-82
2023/12/11 08:21:17;;;;;;;11.57;2.30;;;9.70;92.80;;;;;;5088328;28;20470;-83
2023/12/11 08:23:44;;;;;;;9.55;2.60;;;9.70;92.80;;;;;;5107136;28;20027;-81
2023/12/11 08:26:17;;;;;;;12.95;2.65;;;9.70;92.80;;;;;;5096002;28;20096;-80
2023/12/11 08:28:43;;;;;;;14.43;3.30;;;9.70;92.80;;;;;;5129005;28;20040;-81
2023/12/11 08:31:09;;;;;;;10.30;2.55;;;9.70;92.80;;;;;;5115308;28;20035;-80
2023/12/11 08:33:35;;;;;;;11.20;2.38;;;9.70;92.80;;;;;;5114014;28;20046;-82
2023/12/11 08:36:00;;;;;;;13.45;3.35;;;9.70;92.80;;;;;;5116693;28;20035;-81
2023/12/11 08:38:27;;;;;;;8.73;2.47;;;9.70;92.90;;;;;;5108870;28;20505;-81
2023/12/11 08:40:52;;;;;;;11.02;3.30;;;9.70;92.90;;;;;;5127849;28;20083;-81
2023/12/11 08:43:18;;;;;;;11.30;2.80;;;9.70;92.90;;;;;;5129332;28;20035;-82
2023/12/11 08:45:44;;;;;;;19.35;3.97;;;9.70;92.90;;;;;;5111820;28;20042;-82
2023/12/11 08:48:09;;;;;;;14.07;3.33;;;9.60;92.90;;;;;;5094329;28;20478;-81
2023/12/11 08:50:35;;;;;;;11.77;2.90;;;9.70;92.90;;;;;;5119429;28;20042;-81
2023/12/11 08:53:01;;;;;;;13.27;3.67;;;9.60;92.90;;;;;;5110600;28;20118;-81
2023/12/11 08:55:28;;;;;;;14.57;3.47;;;9.70;92.90;;;;;;5109298;28;20401;-81
2023/12/11 08:57:53;;;;;;;19.40;3.83;;;9.60;92.90;;;;;;5118424;27;20046;-81
2023/12/11 09:00:19;;;;;;;16.05;3.70;;;9.60;92.90;;;;;;5113750;27;20035;-82
2023/12/11 09:02:45;;;;;;;22.50;5.13;;;9.70;93.00;;;;;;5097384;27;20063;-82
2023/12/11 09:05:11;;;;;;;24.27;3.70;;;9.70;93.00;;;;;;5097015;27;20030;-82
2023/12/11 09:07:36;;;;;;;21.13;4.13;;;9.70;93.00;;;;;;5112064;28;20035;-82
2023/12/11 09:10:03;;;;;;;22.17;3.90;;;9.70;93.20;;;;;;5118614;27;20045;-82
2023/12/11 09:12:30;;;;;;;20.08;3.70;;;9.70;93.10;;;;;;5120424;27;20035;-81
2023/12/11 09:14:55;;;;;;;18.20;4.35;;;9.70;93.10;;;;;;5120072;27;20067;-82
2023/12/11 09:17:21;;;;;;;21.52;4.18;;;9.70;93.30;;;;;;5113510;27;20042;-82
2023/12/11 09:19:47;;;;;;;17.55;3.78;;;9.70;93.10;;;;;;5120640;27;20038;-82
2023/12/11 09:22:14;;;;;;;18.58;3.00;;;9.70;93.10;;;;;;5100646;27;20446;-82
2023/12/11 09:24:40;;;;;;;15.10;3.58;;;9.70;93.10;;;;;;5115375;27;20042;-82
2023/12/11 09:27:07;;;;;;;15.68;3.47;;;9.70;93.10;;;;;;5115453;27;20039;-83
2023/12/11 09:29:33;;;;;;;18.15;3.60;;;9.80;93.10;;;;;;5119029;27;20034;-82
2023/12/11 09:31:59;;;;;;;18.63;3.22;;;9.80;93.10;;;;;;5096238;27;20639;-84
2023/12/11 09:34:25;;;;;;;23.13;4.45;;;9.80;93.10;;;;;;5091269;28;20035;-84
2023/12/11 09:36:50;;;;;;;18.90;3.53;;;9.80;93.10;;;;;;5094967;27;20047;-83
2023/12/11 09:39:16;;;;;;;23.17;3.55;;;9.80;93.20;;;;;;5114918;27;20043;-82
2023/12/11 09:41:44;;;;;;;18.75;4.07;;;9.80;93.20;;;;;;5115911;27;20061;-82
2023/12/11 09:44:10;;;;;;;18.20;3.08;;;9.80;93.20;;;;;;5116318;27;20039;-82
2023/12/11 09:46:57;;;;;;;18.48;3.60;;;9.80;93.20;;;;;;5114135;27;20050;-82
2023/12/11 09:49:23;;;;;;;15.40;3.70;;;9.80;93.20;;;;;;5116917;27;20051;-83
2023/12/11 09:51:48;;;;;;;20.70;3.38;;;9.80;93.20;;;;;;5097337;28;20144;-82
2023/12/11 09:54:14;;;;;;;18.45;3.15;;;9.80;93.30;;;;;;5096103;27;20032;-82
2023/12/11 09:56:42;;;;;;;23.35;3.70;;;9.80;93.10;;;;;;5117455;27;20082;-82
2023/12/11 09:59:10;;;;;;;21.67;3.50;;;9.90;93.20;;;;;;5117512;27;20035;-82
2023/12/11 10:01:36;;;;;;;22.85;4.82;;;9.90;93.10;;;;;;5100315;27;20031;-82
2023/12/11 10:04:02;;;;;;;16.38;3.30;;;9.90;93.10;;;;;;5095008;28;20039;-82
2023/12/11 10:06:28;;;;;;;26.38;3.80;;;9.90;93.10;;;;;;5117652;28;20073;-82
2023/12/11 10:08:54;;;;;;;21.77;4.45;;;9.90;93.10;;;;;;5097696;27;20027;-82
2023/12/11 10:11:22;;;;;;;22.48;4.10;;;9.90;93.00;;;;;;5110063;27;20054;-82
2023/12/11 10:13:48;;;;;;;15.85;4.00;;;9.90;93.00;;;;;;5113030;27;20110;-81
2023/12/11 10:16:32;;;;;;;20.70;3.88;;;9.90;93.00;;;;;;5112054;27;20047;-82
2023/12/11 10:18:59;;;;;;;18.85;3.08;;;9.90;93.00;;;;;;5113647;27;20172;-81
2023/12/11 10:21:25;;;;;;;25.30;4.50;;;9.90;93.00;;;;;;5112947;27;20163;-80
2023/12/11 10:24:04;;;;;;;25.58;3.75;;;9.90;92.90;;;;;;5128894;27;20042;-81
2023/12/11 10:26:37;;;;;;;22.27;4.35;;;9.90;92.90;;;;;;5112666;27;20042;-83
2023/12/11 10:29:19;;;;;;;25.17;4.85;;;9.90;92.90;;;;;;5111748;28;20042;-82
2023/12/11 10:31:45;;;;;;;26.17;5.28;;;9.90;92.80;;;;;;5111478;27;20059;-82
2023/12/11 10:34:11;;;;;;;21.13;3.05;;;9.80;92.80;;;;;;5111497;27;20127;-82
2023/12/11 10:36:50;;;;;;;21.13;3.38;;;9.80;92.80;;;;;;5092607;27;20498;-82
2023/12/11 10:39:16;;;;;;;20.52;3.47;;;9.80;92.80;;;;;;5117271;27;20067;-83
2023/12/11 10:41:45;;;;;;;21.05;4.38;;;9.80;92.80;;;;;;5113691;28;20057;-82
2023/12/11 10:44:40;;;;;;;17.02;3.63;;;9.80;92.80;;;;;;5113088;27;20031;-82
2023/12/11 10:47:07;;;;;;;19.85;3.95;;;9.80;92.80;;;;;;5091972;27;20046;-82
2023/12/11 10:49:33;;;;;;;15.60;3.08;;;9.80;92.90;;;;;;5108219;27;20035;-82
2023/12/11 10:52:02;;;;;;;19.35;3.38;;;9.70;92.90;;;;;;5096100;27;20061;-83
2023/12/11 10:54:28;;;;;;;18.90;3.05;;;9.80;93.00;;;;;;5099523;27;20035;-82
2023/12/11 10:56:55;;;;;;;14.25;2.15;;;9.80;93.00;;;;;;5114050;27;20054;-82
2023/12/11 10:59:22;;;;;;;10.10;2.30;;;9.80;93.00;;;;;;5116166;27;20031;-82
2023/12/11 11:01:49;;;;;;;15.27;2.88;;;9.80;93.00;;;;;;5118681;27;20393;-83
2023/12/11 11:04:17;;;;;;;12.45;2.53;;;9.80;92.90;;;;;;5094631;27;20062;-82
2023/12/11 11:06:53;;;;;;;14.68;3.22;;;9.80;92.80;;;;;;5097624;27;20387;-82
2023/12/11 11:09:33;;;;;;;17.75;3.42;;;9.80;92.80;;;;;;5132656;27;20039;-82
2023/12/11 11:12:07;;;;;;;20.83;3.45;;;9.80;92.70;;;;;;5111902;27;20058;-82
2023/12/11 11:14:42;;;;;;;14.20;3.63;;;9.80;92.60;;;;;;5118991;27;20035;-82
2023/12/11 11:17:09;;;;;;;19.67;4.15;;;9.80;92.60;;;;;;5120020;27;20036;-82
2023/12/11 11:19:35;;;;;;;20.95;3.95;;;9.80;92.60;;;;;;5115045;27;20035;-82
2023/12/11 11:22:03;;;;;;;19.95;3.95;;;9.80;92.50;;;;;;5094534;27;20043;-82
2023/12/11 11:24:30;;;;;;;18.35;3.92;;;9.80;92.40;;;;;;5111458;27;20031;-83
2023/12/11 11:26:56;;;;;;;28.45;5.32;;;9.80;92.40;;;;;;5113909;28;20050;-82
2023/12/11 11:29:42;;;;;;;18.92;4.32;;;9.80;92.40;;;;;;5115052;27;20401;-82
2023/12/11 11:32:08;;;;;;;19.13;4.00;;;10.10;92.50;;;;;;5109057;27;20040;-81
2023/12/11 11:34:40;;;;;;;21.50;4.40;;;9.80;92.40;;;;;;5132741;27;20031;-82
2023/12/11 11:37:17;;;;;;;24.90;5.30;;;9.80;92.30;;;;;;5109820;28;20062;-82
2023/12/11 11:40:00;;;;;;;25.48;4.65;;;9.80;92.30;;;;;;5113434;27;20075;-82
2023/12/11 11:42:31;;;;;;;19.17;4.18;;;9.80;92.20;;;;;;5089947;27;20046;-82
2023/12/11 11:44:58;;;;;;;20.88;4.10;;;9.80;92.10;;;;;;5138989;27;20041;-83
2023/12/11 11:47:25;;;;;;;15.98;3.35;;;10.00;92.00;;;;;;5131091;27;20035;-82
2023/12/11 11:49:51;;;;;;;18.70;3.28;;;9.70;91.90;;;;;;5095332;28;20082;-82
2023/12/11 11:52:25;;;;;;;18.63;3.72;;;9.80;91.90;;;;;;5106439;28;20050;-82
2023/12/11 11:54:53;;;;;;;19.07;3.23;;;9.90;91.90;;;;;;5131374;28;20062;-82
2023/12/11 11:57:26;;;;;;;12.52;2.88;;;9.80;91.80;;;;;;5111131;28;20332;-83
2023/12/11 11:59:52;;;;;;;18.20;2.83;;;9.80;91.60;;;;;;5111034;28;20040;-82
2023/12/11 12:02:23;;;;;;;17.05;3.40;;;9.80;91.50;;;;;;5096503;28;20103;-81
2023/12/11 12:04:48;;;;;;;16.88;3.83;;;9.70;91.40;;;;;;5109034;28;20035;-82
2023/12/11 12:07:14;;;;;;;16.33;3.30;;;9.70;91.30;;;;;;5096546;28;20033;-83
2023/12/11 12:09:40;;;;;;;16.67;2.40;;;9.70;91.30;;;;;;5091334;28;20035;-82
2023/12/11 12:12:13;;;;;;;14.55;2.80;;;9.80;91.30;;;;;;5111238;28;20035;-82
2023/12/11 12:14:38;;;;;;;15.10;2.78;;;9.70;91.20;;;;;;5113982;28;20035;-82
2023/12/11 12:17:09;;;;;;;14.45;2.40;;;10.10;91.30;;;;;;5097299;28;20038;-83
2023/12/11 12:19:35;;;;;;;12.48;2.92;;;9.70;91.20;;;;;;5127757;28;20438;-80
2023/12/11 12:22:02;;;;;;;10.13;2.03;;;9.60;91.30;;;;;;5093759;28;20490;-80
2023/12/11 12:24:28;;;;;;;15.75;2.10;;;9.70;91.30;;;;;;5127718;28;20086;-81
2023/12/11 12:26:59;;;;;;;11.05;2.25;;;9.70;91.30;;;;;;5132780;28;20042;-85
2023/12/11 12:29:26;;;;;;;8.48;2.05;;;9.70;91.30;;;;;;5102058;28;20031;-85
2023/12/11 12:31:52;;;;;;;10.32;1.70;;;9.70;91.20;;;;;;5097660;27;20501;-84
2023/12/11 12:34:18;;;;;;;10.38;1.90;;;9.70;91.10;;;;;;5111930;27;20030;-84
2023/12/11 12:36:44;;;;;;;13.00;2.22;;;9.60;91.10;;;;;;5101800;27;20067;-86
2023/12/11 12:39:17;;;;;;;7.70;1.38;;;9.60;90.90;;;;;;5110698;27;20107;-83
2023/12/11 12:41:43;;;;;;;7.70;1.42;;;9.60;90.80;;;;;;5110400;27;20474;-84
2023/12/11 12:44:09;;;;;;;7.78;1.83;;;9.60;90.90;;;;;;5101463;27;20031;-83
2023/12/11 12:46:42;;;;;;;8.57;1.50;;;9.60;90.90;;;;;;5102142;28;20040;-83